createdAt,value
2023-04-06T00:01:56.651Z,2.63
2023-04-06T00:04:24.261Z,2.53
2023-04-06T00:06:51.531Z,2.49
2023-04-06T00:09:19.112Z,2.24
2023-04-06T00:11:47.673Z,2.17
2023-04-06T00:14:18.177Z,2.20
2023-04-06T00:16:45.537Z,2.46
2023-04-06T00:19:13.237Z,2.71
2023-04-06T00:21:40.605Z,2.67
2023-04-06T00:24:07.987Z,2.74
2023-04-06T00:26:35.377Z,2.82
2023-04-06T00:29:03.974Z,2.90
2023-04-06T00:31:31.255Z,2.82
2023-04-06T00:33:59.445Z,2.73
2023-04-06T00:36:27.353Z,2.75
2023-04-06T00:38:54.626Z,2.77
2023-04-06T00:41:22.185Z,2.74
2023-04-06T00:43:49.487Z,2.72
2023-04-06T00:46:18.088Z,2.78
2023-04-06T00:48:45.381Z,2.52
2023-04-06T00:51:12.679Z,2.35
2023-04-06T00:53:39.938Z,2.32
2023-04-06T00:56:07.443Z,2.35
2023-04-06T00:58:38.850Z,2.50
2023-04-06T01:01:06.223Z,2.58
2023-04-06T01:03:34.859Z,2.53
2023-04-06T01:06:02.175Z,2.56
2023-04-06T01:08:29.909Z,2.54
2023-04-06T01:10:57.238Z,2.35
2023-04-06T01:13:24.501Z,2.53
2023-04-06T01:15:51.864Z,2.39
2023-04-06T01:18:19.131Z,2.33
2023-04-06T01:20:47.709Z,2.40
2023-04-06T01:23:16.523Z,2.44
2023-04-06T01:25:43.797Z,2.55
2023-04-06T01:28:11.279Z,2.62
2023-04-06T01:30:38.608Z,2.51
2023-04-06T01:33:06.096Z,2.47
2023-04-06T01:35:33.448Z,2.27
2023-04-06T01:38:00.764Z,2.03
2023-04-06T01:40:29.347Z,2.10
2023-04-06T01:42:56.582Z,2.18
2023-04-06T01:45:23.829Z,2.11
2023-04-06T01:47:51.179Z,2.07
2023-04-06T01:50:18.670Z,1.90
2023-04-06T01:52:46.121Z,1.93
2023-04-06T01:55:13.360Z,1.94
2023-04-06T01:57:41.996Z,2.19
2023-04-06T02:00:09.778Z,2.19
2023-04-06T02:02:37.276Z,2.03
2023-04-06T02:05:04.790Z,1.77
2023-04-06T02:07:32.063Z,1.84
2023-04-06T02:09:59.320Z,1.89
2023-04-06T02:12:26.596Z,1.97
2023-04-06T02:14:55.236Z,1.76
2023-04-06T02:17:22.513Z,1.71
2023-04-06T02:19:50.070Z,1.78
2023-04-06T02:22:17.460Z,1.48
2023-04-06T02:24:44.710Z,1.36
2023-04-06T02:27:11.972Z,1.37
2023-04-06T02:29:39.225Z,1.25
2023-04-06T02:32:07.891Z,1.33
2023-04-06T02:34:35.371Z,1.32
2023-04-06T02:37:02.701Z,1.15
2023-04-06T02:39:30.060Z,1.07
2023-04-06T02:41:57.963Z,0.92
2023-04-06T02:44:25.387Z,0.95
2023-04-06T02:46:52.693Z,1.13
2023-04-06T02:49:21.423Z,1.21
2023-04-06T02:51:48.716Z,1.14
2023-04-06T02:54:16.003Z,0.96
2023-04-06T02:56:43.278Z,0.98
2023-04-06T02:59:10.819Z,0.98
2023-04-06T03:01:38.554Z,1.15
2023-04-06T03:04:05.849Z,1.11
2023-04-06T03:06:34.444Z,1.13
2023-04-06T03:09:01.737Z,1.11
2023-04-06T03:11:29.042Z,1.17
2023-04-06T03:13:56.333Z,0.92
2023-04-06T03:16:23.634Z,0.97
2023-04-06T03:18:50.950Z,0.92
2023-04-06T03:21:18.239Z,1.06
2023-04-06T03:23:46.871Z,1.14
2023-04-06T03:26:14.145Z,1.16
2023-04-06T03:28:41.411Z,1.02
2023-04-06T03:31:08.713Z,0.98
2023-04-06T03:33:36.098Z,0.83
2023-04-06T03:36:03.417Z,0.60
2023-04-06T03:38:30.741Z,0.41
2023-04-06T03:40:59.332Z,0.41
2023-04-06T03:43:26.590Z,0.61
2023-04-06T03:45:53.852Z,0.55
2023-04-06T03:48:21.134Z,0.15
2023-04-06T03:50:48.426Z,0.07
2023-04-06T03:53:15.763Z,0.12
2023-04-06T03:55:43.146Z,0.09
2023-04-06T03:58:11.760Z,0.08
2023-04-06T04:00:39.118Z,0.16
2023-04-06T04:03:06.612Z,0.38
2023-04-06T04:05:34.004Z,0.45
2023-04-06T04:08:01.294Z,0.68
2023-04-06T04:10:28.582Z,0.68
2023-04-06T04:12:55.894Z,0.66
2023-04-06T04:15:24.528Z,0.71
2023-04-06T04:17:52.008Z,0.73
2023-04-06T04:20:19.836Z,0.71
2023-04-06T04:22:47.084Z,0.59
2023-04-06T04:25:15.324Z,0.71
2023-04-06T04:27:42.612Z,0.64
2023-04-06T04:30:10.369Z,0.64
2023-04-06T04:32:38.996Z,0.56
2023-04-06T04:35:06.766Z,0.68
2023-04-06T04:37:35.846Z,0.62
2023-04-06T04:40:03.647Z,0.58
2023-04-06T04:42:30.920Z,0.57
2023-04-06T04:44:58.170Z,0.58
2023-04-06T04:47:25.531Z,0.44
2023-04-06T04:49:54.140Z,0.63
2023-04-06T04:52:21.437Z,0.74
2023-04-06T04:54:48.906Z,0.60
2023-04-06T04:57:16.174Z,0.76
2023-04-06T04:59:44.407Z,0.75
2023-04-06T05:02:11.746Z,0.66
2023-04-06T05:04:39.085Z,0.58
2023-04-06T05:07:08.613Z,0.57
2023-04-06T05:09:36.064Z,0.70
2023-04-06T05:12:03.448Z,0.56
2023-04-06T05:14:31.019Z,0.57
2023-04-06T05:16:58.330Z,0.63
2023-04-06T05:19:25.687Z,0.53
2023-04-06T05:21:52.962Z,0.60
2023-04-06T05:24:21.543Z,0.71
2023-04-06T05:26:48.811Z,0.68
2023-04-06T05:29:16.131Z,0.89
2023-04-06T05:31:43.526Z,1.22
2023-04-06T05:34:11.477Z,1.32
2023-04-06T05:36:38.776Z,1.42
2023-04-06T05:39:06.260Z,1.68
2023-04-06T05:41:35.086Z,1.77
2023-04-06T05:44:02.357Z,1.97
2023-04-06T05:46:29.678Z,2.20
2023-04-06T05:48:57.093Z,2.26
2023-04-06T05:51:24.449Z,2.39
2023-04-06T05:53:51.747Z,2.61
2023-04-06T05:56:19.314Z,2.81
2023-04-06T05:58:47.971Z,2.90
2023-04-06T06:01:15.321Z,2.86
2023-04-06T06:03:42.555Z,2.90
2023-04-06T06:06:09.847Z,2.85
2023-04-06T06:08:37.102Z,2.80
2023-04-06T06:11:04.364Z,3.04
2023-04-06T06:13:31.640Z,3.26
2023-04-06T06:16:00.291Z,3.26
2023-04-06T06:18:27.614Z,3.22
2023-04-06T06:20:55.101Z,3.26
2023-04-06T06:23:22.418Z,3.40
2023-04-06T06:25:49.684Z,3.44
2023-04-06T06:28:17.421Z,3.50
2023-04-06T06:30:44.720Z,3.56
2023-04-06T06:33:13.378Z,3.85
2023-04-06T06:35:40.753Z,4.16
2023-04-06T06:38:08.318Z,4.32
2023-04-06T06:40:35.729Z,4.50
2023-04-06T06:43:03.210Z,4.60
2023-04-06T06:45:31.351Z,4.44
2023-04-06T06:47:58.647Z,4.68
2023-04-06T06:50:27.294Z,4.94
2023-04-06T06:52:54.633Z,4.98
2023-04-06T06:55:21.982Z,4.98
2023-04-06T06:57:49.292Z,5.38
2023-04-06T07:00:16.979Z,5.27
2023-04-06T07:02:44.354Z,5.64
2023-04-06T07:05:24.329Z,5.67
2023-04-06T07:07:56.293Z,5.89
2023-04-06T07:10:23.728Z,6.07
2023-04-06T07:12:51.029Z,6.12
2023-04-06T07:15:18.390Z,6.21
2023-04-06T07:17:46.578Z,6.14
2023-04-06T07:20:14.393Z,6.27
2023-04-06T07:22:42.416Z,6.19
2023-04-06T07:25:11.346Z,6.17
2023-04-06T07:27:38.968Z,6.36
2023-04-06T07:30:06.809Z,6.66
2023-04-06T07:32:35.595Z,6.84
2023-04-06T07:35:03.050Z,7.02
2023-04-06T07:37:30.353Z,7.11
2023-04-06T07:39:57.631Z,7.30
2023-04-06T07:42:26.206Z,7.31
2023-04-06T07:44:53.499Z,7.53
2023-04-06T07:47:20.766Z,7.58
2023-04-06T07:49:48.055Z,7.67
2023-04-06T07:52:15.298Z,7.73
2023-04-06T07:54:42.705Z,8.01
2023-04-06T07:57:10.012Z,7.88
2023-04-06T07:59:38.725Z,8.32
2023-04-06T08:02:06.306Z,8.54
2023-04-06T08:04:33.891Z,8.73
2023-04-06T08:07:01.528Z,9.05
2023-04-06T08:09:28.974Z,9.31
2023-04-06T08:11:56.410Z,9.46
2023-04-06T08:14:23.732Z,9.47
2023-04-06T08:16:52.327Z,9.54
2023-04-06T08:19:19.899Z,9.80
2023-04-06T08:21:48.125Z,9.75
2023-04-06T08:24:15.493Z,10.08
2023-04-06T08:26:42.874Z,10.25
2023-04-06T08:29:10.307Z,10.16
2023-04-06T08:31:37.924Z,9.84
2023-04-06T08:34:08.606Z,9.83
2023-04-06T08:36:37.493Z,10.02
2023-04-06T08:39:04.882Z,10.14
2023-04-06T08:41:33.003Z,10.05
2023-04-06T08:44:01.091Z,10.34
2023-04-06T08:46:30.809Z,10.60
2023-04-06T08:48:58.699Z,10.87
2023-04-06T08:51:28.746Z,11.03
2023-04-06T08:53:56.507Z,11.13
2023-04-06T08:56:24.001Z,11.26
2023-04-06T08:58:53.906Z,11.43
2023-04-06T09:01:23.294Z,11.22
2023-04-06T09:03:51.775Z,11.23
2023-04-06T09:06:19.732Z,11.48
2023-04-06T09:08:48.336Z,11.77
2023-04-06T09:11:16.859Z,11.33
2023-04-06T09:13:47.979Z,11.48
2023-04-06T09:16:15.403Z,11.35
2023-04-06T09:18:42.913Z,11.34
2023-04-06T09:21:10.780Z,11.85
2023-04-06T09:23:38.924Z,11.69
2023-04-06T09:26:11.638Z,11.97
2023-04-06T09:28:46.291Z,12.23
2023-04-06T09:31:13.618Z,12.15
2023-04-06T09:33:41.358Z,12.08
2023-04-06T09:36:10.504Z,12.29
2023-04-06T09:38:38.651Z,12.17
2023-04-06T09:41:05.993Z,12.17
2023-04-06T09:43:34.636Z,12.65
2023-04-06T09:46:03.877Z,12.13
2023-04-06T09:48:32.944Z,12.56
2023-04-06T09:51:01.666Z,13.06
2023-04-06T09:53:29.992Z,13.14
2023-04-06T09:55:59.585Z,13.24
2023-04-06T09:58:27.803Z,13.28
2023-04-06T10:00:59.711Z,12.98
2023-04-06T10:03:33.029Z,12.66
2023-04-06T10:06:05.661Z,12.19
2023-04-06T10:08:35.000Z,11.71
2023-04-06T10:11:02.621Z,12.06
2023-04-06T10:13:29.892Z,12.47
2023-04-06T10:15:59.192Z,12.67
2023-04-06T10:18:26.650Z,13.14
2023-04-06T10:20:56.806Z,13.53
2023-04-06T10:23:26.038Z,14.16
2023-04-06T10:25:54.021Z,13.96
2023-04-06T10:28:21.609Z,14.40
2023-04-06T10:30:49.202Z,14.88
2023-04-06T10:33:18.512Z,14.59
2023-04-06T10:35:46.411Z,13.89
2023-04-06T10:38:15.180Z,13.40
2023-04-06T10:40:43.801Z,12.73
2023-04-06T10:43:11.630Z,12.85
2023-04-06T10:45:39.434Z,12.64
2023-04-06T10:48:16.940Z,12.57
2023-04-06T10:50:47.173Z,12.07
2023-04-06T10:53:22.346Z,11.88
2023-04-06T10:55:51.134Z,11.90
2023-04-06T10:58:18.505Z,11.83
2023-04-06T11:00:50.645Z,11.41
2023-04-06T11:03:19.155Z,12.11
2023-04-06T11:05:48.525Z,12.67
2023-04-06T11:08:25.609Z,13.41
2023-04-06T11:10:52.992Z,13.73
2023-04-06T11:13:20.284Z,13.70
2023-04-06T11:15:47.612Z,13.19
2023-04-06T11:18:18.883Z,12.41
2023-04-06T11:20:50.913Z,11.96
2023-04-06T11:23:24.301Z,11.55
2023-04-06T11:25:52.424Z,11.62
2023-04-06T11:28:19.981Z,11.57
2023-04-06T11:30:47.339Z,10.87
2023-04-06T11:33:21.699Z,10.70
2023-04-06T11:35:50.430Z,10.53
2023-04-06T11:38:19.864Z,10.91
2023-04-06T11:40:47.212Z,11.47
2023-04-06T11:43:14.486Z,11.49
2023-04-06T11:45:42.870Z,11.13
2023-04-06T11:48:19.221Z,11.06
2023-04-06T11:50:48.415Z,11.38
2023-04-06T11:53:17.037Z,11.50
2023-04-06T11:55:47.686Z,11.49
2023-04-06T11:58:15.031Z,11.97
2023-04-06T12:00:47.322Z,11.95
2023-04-06T12:03:15.314Z,11.83
2023-04-06T12:05:42.701Z,12.08
2023-04-06T12:08:10.023Z,12.39
2023-04-06T12:10:38.632Z,12.78
2023-04-06T12:13:05.911Z,12.66
2023-04-06T12:15:33.277Z,12.87
2023-04-06T12:18:00.679Z,13.16
2023-04-06T12:20:28.400Z,13.27
2023-04-06T12:22:55.961Z,13.11
2023-04-06T12:25:23.237Z,12.94
2023-04-06T12:27:51.851Z,13.09
2023-04-06T12:30:19.185Z,13.06
2023-04-06T12:32:48.267Z,12.79
2023-04-06T12:35:17.290Z,12.77
2023-04-06T12:37:44.581Z,12.68
2023-04-06T12:40:12.793Z,12.49
2023-04-06T12:42:41.322Z,12.42
2023-04-06T12:45:10.587Z,12.40
2023-04-06T12:47:38.637Z,12.74
2023-04-06T12:50:07.351Z,12.51
2023-04-06T12:52:36.233Z,12.61
2023-04-06T12:55:03.701Z,12.91
2023-04-06T12:57:31.524Z,13.30
2023-04-06T12:59:59.327Z,13.06
2023-04-06T13:02:28.120Z,13.26
2023-04-06T13:04:55.430Z,13.28
2023-04-06T13:07:22.732Z,13.20
2023-04-06T13:09:50.644Z,13.07
2023-04-06T13:12:17.967Z,12.88
2023-04-06T13:14:45.445Z,12.73
2023-04-06T13:17:12.807Z,12.12
2023-04-06T13:19:41.419Z,12.36
2023-04-06T13:22:08.691Z,12.34
2023-04-06T13:24:36.097Z,12.31
2023-04-06T13:27:03.657Z,12.70
2023-04-06T13:29:31.148Z,12.92
2023-04-06T13:31:58.458Z,12.75
2023-04-06T13:34:25.743Z,12.17
2023-04-06T13:36:54.448Z,12.44
2023-04-06T13:39:21.751Z,12.45
2023-04-06T13:41:49.380Z,12.47
2023-04-06T13:44:16.993Z,12.63
2023-04-06T13:46:44.750Z,13.00
2023-04-06T13:49:12.026Z,12.83
2023-04-06T13:51:39.282Z,12.52
2023-04-06T13:54:07.996Z,12.83
2023-04-06T13:56:35.299Z,12.68
2023-04-06T13:59:02.617Z,12.69
2023-04-06T14:01:29.971Z,12.70
2023-04-06T14:03:57.419Z,12.77
2023-04-06T14:06:31.283Z,12.56
2023-04-06T14:08:59.495Z,12.00
2023-04-06T14:11:28.166Z,11.86
2023-04-06T14:13:58.035Z,11.86
2023-04-06T14:16:26.477Z,11.65
2023-04-06T14:18:53.898Z,11.58
2023-04-06T14:21:21.227Z,11.42
2023-04-06T14:23:48.568Z,11.63
2023-04-06T14:26:16.203Z,11.77
2023-04-06T14:28:44.847Z,11.59
2023-04-06T14:31:14.146Z,11.36
2023-04-06T14:33:41.859Z,11.56
2023-04-06T14:36:09.776Z,11.68
2023-04-06T14:38:37.417Z,11.85
2023-04-06T14:41:04.757Z,11.91
2023-04-06T14:43:33.262Z,11.97
2023-04-06T14:46:06.427Z,11.87
2023-04-06T14:48:33.709Z,11.75
2023-04-06T14:51:01.249Z,11.63
2023-04-06T14:53:29.208Z,11.73
2023-04-06T14:55:56.975Z,11.74
2023-04-06T14:58:25.424Z,11.89
2023-04-06T15:00:56.819Z,11.75
2023-04-06T15:03:26.348Z,11.77
2023-04-06T15:05:54.186Z,11.91
2023-04-06T15:08:22.390Z,11.73
2023-04-06T15:10:49.729Z,11.70
2023-04-06T15:13:17.070Z,11.78
2023-04-06T15:15:44.717Z,11.88
2023-04-06T15:18:12.421Z,11.87
2023-04-06T15:20:41.521Z,11.73
2023-04-06T15:23:08.788Z,11.68
2023-04-06T15:25:36.124Z,11.72
2023-04-06T15:28:03.445Z,11.85
2023-04-06T15:30:30.751Z,11.63
2023-04-06T15:33:01.407Z,11.76
2023-04-06T15:35:29.616Z,11.68
2023-04-06T15:37:58.764Z,11.46
2023-04-06T15:40:27.199Z,11.54
2023-04-06T15:42:54.499Z,11.55
2023-04-06T15:45:22.091Z,11.45
2023-04-06T15:47:49.457Z,11.42
2023-04-06T15:50:16.772Z,11.29
2023-04-06T15:52:44.075Z,11.20
2023-04-06T15:55:12.682Z,11.27
2023-04-06T15:57:39.986Z,11.41
2023-04-06T16:00:08.783Z,11.27
2023-04-06T16:02:36.219Z,11.40
2023-04-06T16:05:04.225Z,11.34
2023-04-06T16:07:31.863Z,11.31
2023-04-06T16:09:59.489Z,11.18
2023-04-06T16:12:29.089Z,11.21
2023-04-06T16:14:56.551Z,11.07
2023-04-06T16:17:23.882Z,11.01
2023-04-06T16:19:51.255Z,10.58
2023-04-06T16:22:18.550Z,10.60
2023-04-06T16:24:45.843Z,10.52
2023-04-06T16:27:13.206Z,10.62
2023-04-06T16:29:42.147Z,10.89
2023-04-06T16:32:11.019Z,10.89
2023-04-06T16:34:38.424Z,10.62
2023-04-06T16:37:05.776Z,10.85
2023-04-06T16:39:33.117Z,10.80
2023-04-06T16:42:02.289Z,10.76
2023-04-06T16:44:30.390Z,10.71
2023-04-06T16:47:00.175Z,10.54
2023-04-06T16:49:27.881Z,10.55
2023-04-06T16:51:55.343Z,10.55
2023-04-06T16:54:22.616Z,10.53
2023-04-06T16:56:49.865Z,10.40
2023-04-06T16:59:17.119Z,10.36
2023-04-06T17:01:44.468Z,10.27
2023-04-06T17:04:13.538Z,10.26
2023-04-06T17:06:40.989Z,10.17
2023-04-06T17:09:08.270Z,10.18
2023-04-06T17:11:45.985Z,10.23
2023-04-06T17:14:14.070Z,10.01
2023-04-06T17:16:41.369Z,9.97
2023-04-06T17:19:09.039Z,10.01
2023-04-06T17:21:37.807Z,9.89
2023-04-06T17:24:05.361Z,10.02
2023-04-06T17:26:32.637Z,9.97
2023-04-06T17:28:59.897Z,10.00
2023-04-06T17:31:27.297Z,9.94
2023-04-06T17:33:54.568Z,9.92
2023-04-06T17:36:22.260Z,9.78
2023-04-06T17:38:51.240Z,9.69
2023-04-06T17:41:18.506Z,9.54
2023-04-06T17:43:46.019Z,9.47
2023-04-06T17:46:13.591Z,9.62
2023-04-06T17:48:41.644Z,9.58
2023-04-06T17:51:08.935Z,9.52
2023-04-06T17:53:37.080Z,9.44
2023-04-06T17:56:06.093Z,9.44
2023-04-06T17:58:33.837Z,9.45
2023-04-06T18:01:06.150Z,9.21
2023-04-06T18:03:33.554Z,9.12
2023-04-06T18:06:09.548Z,9.14
2023-04-06T18:08:36.870Z,9.05
2023-04-06T18:11:04.565Z,8.89
2023-04-06T18:13:33.498Z,8.73
2023-04-06T18:16:01.681Z,8.59
2023-04-06T18:18:29.163Z,8.52
2023-04-06T18:20:56.489Z,8.46
2023-04-06T18:23:23.739Z,8.44
2023-04-06T18:29:13.988Z,8.26
2023-04-06T18:31:41.387Z,8.26
2023-04-06T18:34:08.650Z,8.02
2023-04-06T18:36:36.169Z,7.91
2023-04-06T18:39:03.546Z,7.78
2023-04-06T18:41:31.096Z,7.57
2023-04-06T18:43:58.665Z,7.63
2023-04-06T18:46:27.275Z,7.43
2023-04-06T18:48:54.576Z,7.58
2023-04-06T18:51:21.967Z,7.43
2023-04-06T18:53:49.290Z,7.49
2023-04-06T18:56:18.316Z,7.32
2023-04-06T18:58:46.245Z,7.32
2023-04-06T19:01:20.576Z,7.23
2023-04-06T19:03:49.383Z,6.93
2023-04-06T19:06:16.833Z,6.93
2023-04-06T19:08:44.087Z,6.86
2023-04-06T19:11:11.825Z,6.71
2023-04-06T19:13:39.149Z,6.53
2023-04-06T19:16:10.127Z,6.55
2023-04-06T19:18:38.089Z,6.64
2023-04-06T19:21:14.795Z,6.56
2023-04-06T19:23:42.079Z,6.68
2023-04-06T19:26:10.161Z,6.58
2023-04-06T19:28:37.456Z,6.28
2023-04-06T19:31:05.800Z,6.19
2023-04-06T19:33:35.188Z,5.92
2023-04-06T19:36:02.977Z,6.00
2023-04-06T19:38:32.576Z,5.90
2023-04-06T19:41:00.045Z,6.06
2023-04-06T19:43:27.361Z,5.98
2023-04-06T19:45:54.775Z,6.07
2023-04-06T19:48:22.115Z,5.94
2023-04-06T19:50:49.540Z,5.74
2023-04-06T19:53:16.794Z,5.74
2023-04-06T19:55:46.624Z,5.80
2023-04-06T19:58:14.204Z,5.70
2023-04-06T20:00:41.535Z,5.52
2023-04-06T20:03:09.199Z,5.56
2023-04-06T20:05:36.625Z,5.48
2023-04-06T20:08:03.932Z,5.54
2023-04-06T20:10:31.169Z,5.29
2023-04-06T20:13:01.156Z,5.24
2023-04-06T20:15:28.468Z,5.07
2023-04-06T20:17:55.925Z,5.08
2023-04-06T20:20:23.201Z,5.06
2023-04-06T20:22:50.508Z,5.12
2023-04-06T20:25:17.797Z,5.25
2023-04-06T20:27:45.521Z,5.17
2023-04-06T20:30:15.392Z,5.11
2023-04-06T20:32:42.744Z,5.05
2023-04-06T20:35:10.499Z,4.95
2023-04-06T20:37:38.715Z,4.90
2023-04-06T20:40:06.809Z,4.79
2023-04-06T20:42:34.216Z,4.87
2023-04-06T20:45:03.058Z,4.66
2023-04-06T20:47:32.190Z,4.73
2023-04-06T20:49:59.624Z,4.78
2023-04-06T20:52:27.621Z,4.60
2023-04-06T20:54:55.025Z,4.82
2023-04-06T20:57:22.329Z,4.73
2023-04-06T20:59:49.599Z,4.79
2023-04-06T21:02:17.437Z,4.79
2023-04-06T21:04:46.237Z,4.97
2023-04-06T21:07:13.564Z,4.91
2023-04-06T21:09:41.340Z,4.80
2023-04-06T21:12:08.766Z,4.85
2023-04-06T21:14:36.440Z,4.62
2023-04-06T21:17:04.112Z,4.80
2023-04-06T21:19:31.503Z,4.58
2023-04-06T21:22:00.132Z,4.42
2023-04-06T21:24:27.468Z,4.38
2023-04-06T21:26:54.766Z,4.62
2023-04-06T21:29:22.075Z,4.52
2023-04-06T21:31:49.345Z,4.54
2023-04-06T21:34:16.985Z,4.55
2023-04-06T21:36:44.448Z,4.17
2023-04-06T21:39:13.098Z,4.31
2023-04-06T21:41:40.654Z,4.12
2023-04-06T21:44:07.930Z,4.17
2023-04-06T21:46:35.390Z,4.18
2023-04-06T21:49:02.693Z,4.26
2023-04-06T21:51:30.015Z,4.29
2023-04-06T21:53:57.285Z,4.33
2023-04-06T21:56:26.274Z,4.16
2023-04-06T21:58:53.706Z,4.03
2023-04-06T22:01:21.257Z,4.02
2023-04-06T22:03:49.454Z,4.13
2023-04-06T22:06:17.006Z,3.97
2023-04-06T22:08:45.945Z,3.98
2023-04-06T22:11:13.235Z,3.79
2023-04-06T22:13:41.829Z,3.83
2023-04-06T22:16:09.155Z,3.59
2023-04-06T22:18:38.897Z,3.95
2023-04-06T22:21:06.963Z,3.75
2023-04-06T22:23:34.343Z,3.76
2023-04-06T22:26:01.619Z,3.86
2023-04-06T22:28:28.897Z,3.88
2023-04-06T22:30:57.468Z,3.68
2023-04-06T22:33:25.039Z,3.68
2023-04-06T22:35:52.313Z,3.70
2023-04-06T22:38:19.632Z,3.60
2023-04-06T22:40:46.890Z,3.76
2023-04-06T22:43:14.150Z,3.67
2023-04-06T22:45:41.629Z,3.65
2023-04-06T22:48:10.266Z,3.40
2023-04-06T22:50:37.551Z,3.39
2023-04-06T22:53:04.793Z,3.54
2023-04-06T22:55:32.116Z,3.52
2023-04-06T22:57:59.430Z,3.50
2023-04-06T23:00:26.699Z,3.47
2023-04-06T23:02:54.096Z,3.35
2023-04-06T23:05:22.822Z,3.49
2023-04-06T23:07:51.151Z,3.45
2023-04-06T23:10:20.042Z,3.26
2023-04-06T23:12:48.204Z,3.00
2023-04-06T23:15:15.697Z,2.83
2023-04-06T23:17:42.957Z,2.81
2023-04-06T23:20:10.583Z,2.83
2023-04-06T23:22:39.449Z,2.98
2023-04-06T23:25:07.989Z,3.03
2023-04-06T23:27:35.599Z,3.08
2023-04-06T23:30:02.858Z,3.09
2023-04-06T23:32:30.247Z,3.03
2023-04-06T23:34:57.592Z,3.14
2023-04-06T23:37:24.859Z,3.08
2023-04-06T23:39:53.422Z,3.22
2023-04-06T23:42:20.868Z,3.31
2023-04-06T23:44:48.310Z,3.12
2023-04-06T23:47:15.631Z,3.19
2023-04-06T23:49:42.923Z,2.97
2023-04-06T23:52:10.226Z,2.94
2023-04-06T23:54:37.519Z,3.05
2023-04-06T23:57:06.110Z,3.07
2023-04-06T23:59:33.402Z,2.99
